Time;durP1;ratioP1;P1;durP2;ratioP2;P2;SDS_P1;SDS_P2;PMS_P1;PMS_P2;Temp;Humidity;BMP_temperature;BMP_pressure;BME280_temperature;BME280_humidity;BME280_pressure;Samples;Min_cycle;Max_cycle;Signal;HPM_P1;HPM_P2
2022/05/25 00:02:22;;;;;;;3.17;2.10;;;;;;;15.41;38.26;98963.91;1687917;84;21418;-70
2022/05/25 00:04:50;;;;;;;1.90;1.72;;;;;;;15.39;38.34;98965.48;1688083;84;21091;-70
2022/05/25 00:07:17;;;;;;;1.95;1.55;;;;;;;15.39;38.44;98969.50;1688678;84;21036;-71
2022/05/25 00:09:46;;;;;;;2.45;2.00;;;;;;;15.38;38.49;98966.50;1687868;84;20963;-72
2022/05/25 00:12:13;;;;;;;2.00;1.82;;;;;;;15.37;38.58;98962.70;1687801;84;21470;-71
2022/05/25 00:14:40;;;;;;;3.08;1.70;;;;;;;15.35;38.68;98960.25;1687794;84;20911;-70
2022/05/25 00:17:06;;;;;;;1.90;1.77;;;;;;;15.31;38.81;98961.70;1689229;84;21252;-70
2022/05/25 00:22:18;;;;;;;2.10;1.90;;;;;;;15.28;38.82;98966.14;1690740;84;20950;-70
2022/05/25 00:24:44;;;;;;;3.02;1.60;;;;;;;15.26;38.91;98965.53;1697042;83;20950;-69
2022/05/25 00:27:10;;;;;;;2.77;1.65;;;;;;;15.25;38.97;98967.09;1685796;84;21443;-70
2022/05/25 00:29:37;;;;;;;1.90;1.80;;;;;;;15.26;39.01;98971.41;1687914;84;21137;-70
2022/05/25 00:32:05;;;;;;;2.08;1.75;;;;;;;15.23;39.11;98978.02;1688038;84;20907;-71
2022/05/25 00:34:33;;;;;;;2.37;1.92;;;;;;;15.19;39.21;98982.67;1687998;84;20927;-70
2022/05/25 00:36:59;;;;;;;2.20;1.80;;;;;;;15.17;39.21;98976.17;1684201;84;20967;-70
2022/05/25 00:39:26;;;;;;;1.67;1.52;;;;;;;15.15;39.27;98975.56;1679991;85;21046;-69
2022/05/25 00:41:55;;;;;;;3.20;1.77;;;;;;;15.16;39.25;98977.73;1680496;85;21124;-70
2022/05/25 00:44:21;;;;;;;2.00;1.40;;;;;;;15.16;39.36;98976.39;1683046;85;21457;-72
2022/05/25 00:46:48;;;;;;;2.55;1.60;;;;;;;15.13;39.47;98976.81;1679776;85;20964;-73
2022/05/25 00:49:28;;;;;;;2.27;2.08;;;;;;;15.11;39.56;98973.53;1680006;85;20924;-72
2022/05/25 00:51:59;;;;;;;2.05;1.52;;;;;;;15.09;39.57;98976.44;1679589;84;20971;-71
2022/05/25 00:54:32;;;;;;;3.75;1.75;;;;;;;15.07;39.59;98972.32;1679333;85;21576;-71
2022/05/25 00:57:06;;;;;;;1.90;1.80;;;;;;;15.06;39.56;98976.02;1680582;85;20947;-73
2022/05/25 00:59:39;;;;;;;1.52;1.42;;;;;;;15.03;39.57;98975.92;1679856;85;20940;-71
2022/05/25 01:02:05;;;;;;;1.95;1.75;;;;;;;15.03;39.50;98974.59;1679595;85;21123;-72
2022/05/25 01:04:32;;;;;;;5.22;2.10;;;;;;;15.01;39.45;98969.96;1681791;85;20922;-70
2022/05/25 01:07:36;;;;;;;1.90;1.80;;;;;;;15.01;39.44;98962.44;1681702;85;21175;-70
2022/05/25 01:10:14;;;;;;;2.02;1.77;;;;;;;14.98;39.47;98970.89;1683114;85;21023;-73
2022/05/25 01:13:07;;;;;;;2.02;1.52;;;;;;;14.97;39.38;98974.08;1690930;84;21426;-69
2022/05/25 01:15:55;;;;;;;2.47;1.85;;;;;;;14.95;39.35;98975.32;1681403;85;20912;-70
2022/05/25 01:18:50;;;;;;;2.80;2.00;;;;;;;14.94;39.28;98965.66;1680029;85;20876;-70
2022/05/25 01:21:29;;;;;;;2.08;1.70;;;;;;;14.93;39.34;98973.38;1679809;85;21222;-72
2022/05/25 01:24:19;;;;;;;1.80;1.60;;;;;;;14.88;39.37;98965.16;1679905;85;20991;-72
2022/05/25 01:27:37;;;;;;;1.67;1.47;;;;;;;14.86;39.35;98964.00;1676055;85;20955;-71
2022/05/25 01:30:19;;;;;;;;;;;;;;;14.86;39.37;98968.56;1681481;85;21061;-70
2022/05/25 01:33:22;;;;;;;1.92;1.55;;;;;;;14.83;39.33;98961.23;1680094;85;20424;-70
2022/05/25 01:36:06;;;;;;;1.60;1.50;;;;;;;14.86;39.29;98963.20;1679549;85;21249;-70
2022/05/25 01:38:57;;;;;;;2.08;1.60;;;;;;;14.85;39.36;98955.69;1683919;84;20955;-71
2022/05/25 01:41:58;;;;;;;2.20;1.50;;;;;;;14.83;39.39;98955.88;1688021;84;20967;-70
2022/05/25 01:44:33;;;;;;;2.98;1.77;;;;;;;14.82;39.40;98950.23;1690780;84;21013;-69
2022/05/25 01:47:05;;;;;;;1.98;1.60;;;;;;;14.81;39.42;98948.58;1690510;84;21006;-72
2022/05/25 01:50:06;;;;;;;2.42;1.62;;;;;;;14.80;39.47;98946.95;1696932;84;21843;-72
2022/05/25 01:52:37;;;;;;;1.50;1.40;;;;;;;14.82;39.48;98944.88;1695479;84;20890;-70
2022/05/25 01:55:08;;;;;;;1.87;1.62;;;;;;;14.81;39.46;98943.22;1695585;84;21010;-70
2022/05/25 01:57:37;;;;;;;2.12;1.82;;;;;;;14.81;39.49;98945.90;1683411;84;20928;-69
2022/05/25 02:00:06;;;;;;;4.35;1.60;;;;;;;14.81;39.48;98941.88;1688148;84;20983;-70
2022/05/25 02:05:19;;;;;;;2.02;1.55;;;;;;;14.83;39.46;98943.03;1690505;84;20947;-69
2022/05/25 02:08:06;;;;;;;2.47;1.90;;;;;;;14.80;39.47;98939.42;1690458;84;20939;-72
2022/05/25 02:11:01;;;;;;;1.82;1.42;;;;;;;14.86;39.46;98947.14;1682644;84;21030;-69
2022/05/25 02:14:22;;;;;;;3.33;2.08;;;;;;;14.87;39.46;98948.25;1690496;84;21058;-71
2022/05/25 02:17:06;;;;;;;3.37;1.92;;;;;;;14.86;39.47;98953.29;1687125;84;21762;-69
2022/05/25 02:19:42;;;;;;;1.65;1.55;;;;;;;14.85;39.37;98947.66;1679240;84;20958;-70
2022/05/25 02:22:21;;;;;;;3.17;1.50;;;;;;;14.88;39.28;98954.44;1687611;84;20955;-68
2022/05/25 02:25:00;;;;;;;1.72;1.62;;;;;;;14.91;39.21;98958.88;1687775;84;21003;-70
2022/05/25 02:27:47;;;;;;;1.50;1.40;;;;;;;14.94;39.16;98962.44;1688734;84;20963;-71
2022/05/25 02:30:18;;;;;;;2.55;1.80;;;;;;;15.00;39.08;98959.44;1681246;84;21847;-71
2022/05/25 02:32:55;;;;;;;2.22;1.72;;;;;;;15.04;38.96;98967.38;1688281;84;21437;-69
2022/05/25 02:35:22;;;;;;;1.77;1.67;;;;;;;15.09;38.96;98959.02;1695416;84;21464;-70
2022/05/25 02:37:50;;;;;;;1.70;1.60;;;;;;;15.16;38.92;98962.48;1689210;84;20950;-70
2022/05/25 02:40:18;;;;;;;1.60;1.50;;;;;;;15.22;38.95;98963.50;1697784;84;21058;-72
2022/05/25 02:42:44;;;;;;;3.35;1.65;;;;;;;15.26;38.91;98965.53;1695950;84;21264;-70
2022/05/25 02:45:13;;;;;;;3.33;1.80;;;;;;;15.30;38.89;98965.41;1695163;84;20934;-72
2022/05/25 02:47:42;;;;;;;1.98;1.60;;;;;;;15.35;38.84;98971.48;1698578;84;20955;-73
2022/05/25 02:50:09;;;;;;;2.33;1.72;;;;;;;15.41;38.87;98969.27;1688990;84;21548;-70
2022/05/25 02:52:35;;;;;;;2.02;1.80;;;;;;;15.49;38.81;98969.61;1688084;84;20911;-70
2022/05/25 02:55:05;;;;;;;2.22;1.60;;;;;;;15.58;38.78;98971.81;1687787;85;21266;-72
2022/05/25 02:57:33;;;;;;;1.70;1.60;;;;;;;15.66;38.66;98967.55;1684593;85;20910;-70
2022/05/25 03:00:00;;;;;;;2.20;1.57;;;;;;;15.76;38.50;98965.21;1688616;85;21021;-70
2022/05/25 03:02:28;;;;;;;2.20;1.62;;;;;;;15.85;38.36;98965.79;1679802;84;20962;-70
2022/05/25 03:04:55;;;;;;;1.92;1.72;;;;;;;15.93;38.30;98966.84;1687746;85;20974;-70
2022/05/25 03:07:23;;;;;;;4.20;1.75;;;;;;;15.99;38.17;98968.16;1683926;85;21599;-69
2022/05/25 03:09:50;;;;;;;3.52;1.70;;;;;;;16.03;37.98;98972.03;1685728;85;21006;-70
2022/05/25 03:12:16;;;;;;;1.75;1.62;;;;;;;16.09;37.83;98964.98;1688341;85;21050;-70
2022/05/25 03:14:43;;;;;;;3.12;1.67;;;;;;;16.13;37.80;98964.03;1687800;85;21009;-70
2022/05/25 03:17:14;;;;;;;3.00;1.40;;;;;;;16.21;37.78;98972.64;1687885;84;20962;-68
2022/05/25 03:19:49;;;;;;;2.35;1.80;;;;;;;16.32;37.79;98965.75;1687159;84;21161;-71
2022/05/25 03:22:15;;;;;;;1.40;1.30;;;;;;;16.45;37.76;98965.64;1688504;84;21029;-70
2022/05/25 03:24:42;;;;;;;2.90;1.60;;;;;;;16.56;37.65;98966.27;1690282;84;20994;-70
2022/05/25 03:27:08;;;;;;;2.05;1.70;;;;;;;16.62;37.58;98970.77;1696943;83;21043;-71
2022/05/25 03:29:34;;;;;;;2.08;1.50;;;;;;;16.70;37.41;98965.63;1695514;84;20938;-75
2022/05/25 03:32:01;;;;;;;4.10;1.40;;;;;;;16.78;37.35;98964.00;1697266;83;22078;-72
2022/05/25 03:34:28;;;;;;;1.72;1.62;;;;;;;16.85;37.26;98962.06;1690791;84;20990;-70
2022/05/25 03:36:57;;;;;;;2.00;1.90;;;;;;;16.91;37.27;98962.00;1689292;84;21474;-71
2022/05/25 03:39:25;;;;;;;1.52;1.40;;;;;;;16.95;37.31;98967.73;1692444;84;21159;-70
2022/05/25 03:41:55;;;;;;;1.62;1.40;;;;;;;16.95;37.20;98969.91;1703728;82;21388;-71
2022/05/25 03:44:25;;;;;;;2.35;1.52;;;;;;;16.95;37.23;98972.59;1703747;83;21791;-70
2022/05/25 03:46:51;;;;;;;1.65;1.55;;;;;;;16.92;37.25;98976.27;1703330;84;20950;-70
2022/05/25 03:49:17;;;;;;;2.72;1.87;;;;;;;16.89;37.39;98975.36;1704395;82;20989;-72
2022/05/25 03:51:46;;;;;;;3.20;1.45;;;;;;;16.86;37.55;98979.83;1703726;83;21461;-71
2022/05/25 03:54:12;;;;;;;1.40;1.30;;;;;;;16.84;37.63;98975.21;1703439;84;20944;-72
2022/05/25 03:56:39;;;;;;;1.92;1.60;;;;;;;16.82;37.76;98978.61;1701025;84;21155;-72
2022/05/25 03:59:06;;;;;;;1.75;1.42;;;;;;;16.81;37.95;98979.67;1700730;84;21412;-70
2022/05/25 04:01:33;;;;;;;2.35;1.72;;;;;;;16.81;37.83;98983.19;1700972;84;20958;-70
2022/05/25 04:04:00;;;;;;;1.45;1.35;;;;;;;16.79;37.95;98987.94;1700881;84;21022;-70
2022/05/25 04:06:26;;;;;;;2.20;1.32;;;;;;;16.78;37.87;98985.48;1700944;84;21578;-70
2022/05/25 04:08:53;;;;;;;2.65;1.62;;;;;;;16.76;37.77;98983.03;1700951;84;21117;-70
2022/05/25 04:11:21;;;;;;;2.65;1.50;;;;;;;16.75;37.86;98989.95;1700939;84;21421;-70
2022/05/25 04:13:48;;;;;;;1.77;1.67;;;;;;;16.74;37.97;98993.70;1700699;84;20954;-70
2022/05/25 04:16:15;;;;;;;2.90;1.50;;;;;;;16.76;37.94;98991.61;1701344;84;20912;-70
2022/05/25 04:18:42;;;;;;;1.72;1.62;;;;;;;16.78;38.00;98990.86;1700962;84;21018;-72
2022/05/25 04:21:09;;;;;;;1.70;1.60;;;;;;;16.80;38.11;98998.17;1701891;84;22205;-71
2022/05/25 04:23:36;;;;;;;2.10;1.90;;;;;;;16.86;38.05;98999.47;1700641;84;20899;-71
2022/05/25 04:26:03;;;;;;;3.08;1.50;;;;;;;16.91;37.79;98994.24;1702563;84;20915;-70
2022/05/25 04:28:31;;;;;;;2.90;1.85;;;;;;;16.98;37.92;98989.61;1716597;82;20915;-72
2022/05/25 04:30:58;;;;;;;2.15;1.90;;;;;;;17.12;38.23;98987.61;1721602;82;21472;-73
2022/05/25 04:33:27;;;;;;;2.02;1.52;;;;;;;17.23;38.23;98978.81;1703800;83;21144;-71
2022/05/25 04:35:54;;;;;;;2.50;1.70;;;;;;;17.33;37.79;98983.12;1702315;84;21010;-72
2022/05/25 04:38:20;;;;;;;3.70;1.82;;;;;;;17.38;37.68;98979.75;1695516;84;20888;-69
2022/05/25 04:40:48;;;;;;;2.00;1.80;;;;;;;17.44;37.60;98974.83;1680034;85;20970;-72
2022/05/25 04:43:17;;;;;;;2.37;2.10;;;;;;;17.56;37.56;98969.83;1680398;85;20880;-72
2022/05/25 04:45:47;;;;;;;4.72;2.00;;;;;;;17.72;37.42;98969.72;1680100;85;21204;-72
2022/05/25 04:48:13;;;;;;;2.92;1.62;;;;;;;17.89;37.16;98970.70;1679929;85;20915;-72
2022/05/25 04:50:42;;;;;;;1.80;1.60;;;;;;;18.00;37.14;98973.13;1679928;85;21509;-70
2022/05/25 04:53:12;;;;;;;2.35;1.90;;;;;;;18.05;36.43;98967.88;1679276;85;21063;-71
2022/05/25 04:58:28;;;;;;;1.50;1.40;;;;;;;18.06;36.43;98975.74;1683077;85;21787;-71
2022/05/25 05:00:55;;;;;;;4.58;1.40;;;;;;;18.04;36.70;98971.09;1690890;83;20907;-70
2022/05/25 05:03:23;;;;;;;3.27;2.00;;;;;;;17.99;36.78;98972.31;1690219;84;21607;-74
2022/05/25 05:05:52;;;;;;;3.47;2.10;;;;;;;17.93;36.60;98967.04;1669374;85;21466;-71
2022/05/25 05:08:20;;;;;;;4.28;1.87;;;;;;;17.86;37.00;98973.84;1679676;85;21002;-70
2022/05/25 05:10:46;;;;;;;5.97;2.30;;;;;;;17.80;37.24;98976.95;1680110;85;21616;-72
2022/05/25 05:13:14;;;;;;;3.37;1.77;;;;;;;17.77;37.15;98982.78;1680222;85;20964;-70
2022/05/25 05:15:48;;;;;;;5.42;2.17;;;;;;;17.80;37.30;98979.64;1681868;85;20955;-70
2022/05/25 05:18:16;;;;;;;4.22;2.10;;;;;;;17.82;37.23;98982.92;1679945;85;21474;-72
2022/05/25 05:20:54;;;;;;;2.50;2.20;;;;;;;17.90;37.09;98980.42;1678630;85;21081;-72
2022/05/25 05:23:20;;;;;;;4.05;1.92;;;;;;;17.96;36.86;98978.17;1677365;85;21252;-71
2022/05/25 05:25:46;;;;;;;4.40;1.98;;;;;;;18.01;36.84;98970.75;1677966;85;21551;-71
2022/05/25 05:28:16;;;;;;;4.30;1.85;;;;;;;18.09;36.66;98979.33;1680150;85;20939;-73
2022/05/25 05:30:55;;;;;;;6.30;1.85;;;;;;;18.19;36.36;98980.09;1679938;85;20971;-72
2022/05/25 05:33:23;;;;;;;2.45;1.90;;;;;;;18.27;36.30;98985.98;1681630;85;20956;-72
2022/05/25 05:36:12;;;;;;;2.62;1.65;;;;;;;18.36;36.25;98983.23;1681353;85;21909;-68
2022/05/25 05:38:47;;;;;;;2.55;1.85;;;;;;;18.48;36.10;98985.42;1672769;85;21514;-74
2022/05/25 05:41:14;;;;;;;1.57;1.47;;;;;;;18.66;35.94;98979.66;1644213;85;21002;-69
2022/05/25 05:43:41;;;;;;;3.25;2.15;;;;;;;18.85;35.27;98981.19;1640079;85;21096;-70
2022/05/25 05:46:07;;;;;;;2.22;2.02;;;;;;;19.00;35.10;98982.88;1646971;85;21119;-71
2022/05/25 05:48:35;;;;;;;3.77;2.22;;;;;;;19.15;34.93;98985.89;1622545;87;21343;-69
2022/05/25 05:51:03;;;;;;;2.65;2.08;;;;;;;19.21;34.25;98989.52;1635887;85;20999;-71
2022/05/25 05:53:31;;;;;;;7.40;2.30;;;;;;;19.26;34.14;98990.45;1605317;86;21138;-71
2022/05/25 05:55:58;;;;;;;5.05;1.90;;;;;;;19.30;33.93;98984.86;1622444;87;21113;-70
2022/05/25 05:58:25;;;;;;;3.50;2.30;;;;;;;19.34;33.70;98989.26;1639561;85;21093;-69
2022/05/25 06:00:52;;;;;;;4.90;2.20;;;;;;;19.34;33.83;98996.00;1627039;85;21182;-71
2022/05/25 06:03:20;;;;;;;3.02;1.87;;;;;;;19.35;33.87;98993.05;1622523;87;21075;-69
2022/05/25 06:05:46;;;;;;;3.67;1.85;;;;;;;19.36;34.14;98992.01;1622481;87;20965;-71
2022/05/25 06:08:19;;;;;;;6.15;2.10;;;;;;;19.39;34.39;98995.61;1629651;85;21518;-69
2022/05/25 06:10:46;;;;;;;6.03;1.85;;;;;;;19.39;34.26;98996.96;1631704;85;21025;-70
2022/05/25 06:13:12;;;;;;;4.83;1.80;;;;;;;19.41;34.16;98994.84;1628725;85;22056;-69
2022/05/25 06:21:09;;;;;;;5.05;1.70;;;;;;;19.49;33.99;98994.98;1644790;85;20971;-69
2022/05/25 06:23:36;;;;;;;5.97;2.25;;;;;;;19.50;33.95;98993.39;1622279;85;21036;-68
2022/05/25 06:26:03;;;;;;;3.92;1.92;;;;;;;19.55;33.74;98992.14;1622672;87;21194;-70
2022/05/25 06:28:29;;;;;;;3.87;1.62;;;;;;;19.69;38.66;98988.11;1622544;87;20969;-71
2022/05/25 06:30:56;;;;;;;2.72;1.87;;;;;;;19.96;36.34;98995.11;1634334;87;21017;-70
2022/05/25 06:33:22;;;;;;;2.08;1.85;;;;;;;20.15;34.66;98994.37;1647859;85;21116;-71
2022/05/25 06:35:49;;;;;;;2.35;1.90;;;;;;;20.27;33.93;98994.61;1646342;87;21258;-70
2022/05/25 06:38:17;;;;;;;2.58;2.00;;;;;;;20.37;33.87;98991.78;1638667;87;21282;-73
2022/05/25 06:40:43;;;;;;;3.58;2.20;;;;;;;20.48;34.06;98994.95;1628707;87;21026;-69
2022/05/25 06:43:11;;;;;;;4.97;2.75;;;;;;;20.58;33.72;98989.70;1645292;86;21072;-71
2022/05/25 06:45:38;;;;;;;3.08;2.30;;;;;;;20.65;33.24;98993.87;1626982;87;21093;-71
2022/05/25 06:48:09;;;;;;;4.92;2.37;;;;;;;20.69;33.40;98994.20;1622571;87;21026;-71
2022/05/25 06:50:35;;;;;;;2.17;1.60;;;;;;;20.77;33.54;98992.44;1628232;87;21204;-66
2022/05/25 06:53:03;;;;;;;1.80;1.70;;;;;;;20.90;33.51;98995.63;1644968;87;20914;-66
2022/05/25 06:55:30;;;;;;;3.62;2.17;;;;;;;21.06;33.60;98990.42;1635352;85;20993;-72
2022/05/25 06:57:57;;;;;;;3.30;1.80;;;;;;;21.23;34.76;98995.28;1633982;85;21005;-72
2022/05/25 07:00:25;;;;;;;8.40;2.02;;;;;;;21.33;33.55;98992.17;1636199;85;21021;-71
2022/05/25 07:02:51;;;;;;;2.42;1.72;;;;;;;21.37;33.59;98993.33;1638705;85;21345;-73
2022/05/25 07:05:18;;;;;;;3.87;1.70;;;;;;;21.38;33.74;98992.23;1622991;87;21195;-72
2022/05/25 07:07:44;;;;;;;2.30;2.10;;;;;;;21.39;33.58;98990.35;1622847;87;21595;-73
2022/05/25 07:10:11;;;;;;;8.28;2.05;;;;;;;21.40;33.68;98995.50;1622565;87;21030;-73
2022/05/25 07:12:37;;;;;;;3.02;1.47;;;;;;;21.42;34.02;98993.91;1623043;87;21124;-74
2022/05/25 07:15:06;;;;;;;4.25;1.90;;;;;;;21.44;34.17;98994.47;1623029;87;22001;-73
2022/05/25 07:17:34;;;;;;;3.02;1.62;;;;;;;21.42;33.70;99003.38;1631690;87;21522;-75
2022/05/25 07:20:03;;;;;;;2.65;1.57;;;;;;;21.39;33.99;98995.77;1639594;87;21006;-74
2022/05/25 07:22:30;;;;;;;4.00;1.65;;;;;;;21.39;34.29;99000.64;1622882;87;21045;-73
2022/05/25 07:24:56;;;;;;;2.72;1.62;;;;;;;21.39;34.00;99001.17;1622987;87;21514;-73
2022/05/25 07:27:23;;;;;;;1.80;1.60;;;;;;;21.40;34.51;99006.88;1622955;87;21420;-73
2022/05/25 07:29:49;;;;;;;8.98;1.50;;;;;;;21.39;34.88;99005.23;1622979;85;20965;-73
2022/05/25 07:32:16;;;;;;;4.75;1.70;;;;;;;21.43;34.56;99011.23;1622981;87;21471;-72
2022/05/25 07:34:57;;;;;;;5.40;1.90;;;;;;;21.47;35.10;99000.73;1622990;87;21017;-73
2022/05/25 07:37:24;;;;;;;8.13;1.72;;;;;;;21.53;35.23;99002.45;1622949;87;20999;-73
2022/05/25 07:40:02;;;;;;;2.10;1.60;;;;;;;21.63;34.90;99000.39;1648504;84;21933;-73
2022/05/25 07:42:29;;;;;;;2.83;1.57;;;;;;;21.68;34.65;99006.68;1687568;84;20962;-73
2022/05/25 07:44:57;;;;;;;2.72;1.62;;;;;;;21.73;34.00;99010.80;1687692;85;21074;-75
2022/05/25 07:47:24;;;;;;;1.52;1.42;;;;;;;21.84;34.37;98996.84;1687660;85;21115;-71
2022/05/25 07:49:50;;;;;;;3.05;1.60;;;;;;;22.05;34.02;98994.66;1687791;85;21003;-74
2022/05/25 07:52:16;;;;;;;3.52;1.60;;;;;;;22.61;33.79;98985.94;1687733;85;21166;-74
2022/05/25 07:54:43;;;;;;;5.65;1.67;;;;;;;22.61;33.79;98985.94;1687753;85;20951;-74
2022/05/25 07:57:11;;;;;;;1.82;1.40;;;;;;;22.82;33.28;98988.28;1687704;85;21059;-75
2022/05/25 07:59:38;;;;;;;2.75;1.60;;;;;;;23.00;32.90;98997.34;1687766;85;20991;-74
2022/05/25 08:07:45;;;;;;;4.08;1.27;;;;;;;23.56;32.64;98988.17;1687812;84;20990;-75
2022/05/25 08:10:14;;;;;;;6.72;2.12;;;;;;;23.59;32.24;98986.28;1687832;84;20955;-74
2022/05/25 08:12:41;;;;;;;2.27;1.40;;;;;;;23.56;32.36;98986.27;1687878;84;20982;-74
2022/05/25 08:15:09;;;;;;;5.25;1.40;;;;;;;23.55;33.03;98991.42;1687871;84;21086;-75
2022/05/25 08:17:36;;;;;;;3.22;1.50;;;;;;;23.56;33.00;98996.31;1688007;84;21888;-73
2022/05/25 08:20:05;;;;;;;4.22;1.57;;;;;;;23.57;32.65;98995.24;1687832;84;20852;-73
2022/05/25 08:22:31;;;;;;;2.87;1.30;;;;;;;23.58;32.83;98996.32;1687825;84;20924;-73
2022/05/25 08:24:58;;;;;;;10.15;1.92;;;;;;;23.62;32.59;98994.69;1687882;84;21015;-74
2022/05/25 08:27:25;;;;;;;2.47;1.37;;;;;;;23.65;32.67;98995.52;1687806;84;21025;-74
2022/05/25 08:29:51;;;;;;;1.90;1.40;;;;;;;23.65;32.56;99005.56;1689416;84;21857;-73
2022/05/25 08:32:17;;;;;;;1.50;1.37;;;;;;;23.68;32.64;98993.64;1687787;84;20990;-73
2022/05/25 08:34:44;;;;;;;2.85;1.40;;;;;;;23.78;32.16;99000.45;1687929;84;21031;-74
2022/05/25 08:37:11;;;;;;;3.02;1.60;;;;;;;24.01;31.15;99004.61;1687833;84;20951;-75
2022/05/25 08:39:39;;;;;;;2.33;1.37;;;;;;;24.30;30.53;99006.32;1687879;84;21014;-74
2022/05/25 08:42:09;;;;;;;4.62;1.47;;;;;;;24.41;30.37;99004.68;1680481;84;21241;-73
2022/05/25 08:44:36;;;;;;;2.40;1.35;;;;;;;24.54;30.38;98995.98;1679981;85;20904;-73
2022/05/25 08:47:05;;;;;;;1.95;1.32;;;;;;;24.64;30.21;98999.80;1680098;85;20995;-73
2022/05/25 08:49:32;;;;;;;3.27;1.20;;;;;;;24.62;30.44;98995.98;1680013;85;21482;-74
2022/05/25 08:52:02;;;;;;;2.25;1.17;;;;;;;24.63;29.94;98997.63;1679892;85;21015;-73
2022/05/25 08:54:29;;;;;;;4.03;2.20;;;;;;;24.66;29.93;98995.72;1680037;85;21175;-74
2022/05/25 08:57:05;;;;;;;3.85;1.82;;;;;;;24.76;30.11;98991.63;1679892;85;20987;-73
2022/05/25 09:00:04;;;;;;;5.03;1.60;;;;;;;24.99;29.81;98996.52;1679257;85;21004;-72
2022/05/25 09:02:58;;;;;;;4.37;1.60;;;;;;;25.10;29.38;98986.43;1663956;85;20999;-75
2022/05/25 09:05:48;;;;;;;1.60;1.42;;;;;;;24.99;29.49;98988.36;1676795;85;21735;-75
2022/05/25 09:08:23;;;;;;;1.77;1.60;;;;;;;24.97;29.59;98975.58;1683262;85;21711;-74
2022/05/25 09:10:56;;;;;;;4.67;1.80;;;;;;;25.01;30.04;98983.45;1683311;85;21576;-75
2022/05/25 09:13:39;;;;;;;5.08;1.92;;;;;;;24.99;29.29;98988.90;1682302;83;20895;-75
2022/05/25 09:16:22;;;;;;;4.20;1.62;;;;;;;24.99;29.43;98978.02;1684470;84;21513;-73
2022/05/25 09:19:10;;;;;;;4.45;1.45;;;;;;;24.95;29.10;98976.38;1683040;85;21513;-75
2022/05/25 09:21:42;;;;;;;2.85;1.40;;;;;;;24.87;29.24;98989.75;1682258;84;21268;-73
2022/05/25 09:24:13;;;;;;;3.37;1.70;;;;;;;24.84;29.06;98979.41;1687582;84;21547;-74
2022/05/25 09:26:42;;;;;;;1.52;1.25;;;;;;;24.84;29.60;98972.07;1687544;84;20903;-73
2022/05/25 09:29:09;;;;;;;2.40;1.77;;;;;;;25.10;29.25;98962.76;1687533;84;21527;-73
2022/05/25 09:31:49;;;;;;;1.50;1.40;;;;;;;25.23;29.57;98970.06;1687614;84;20938;-72
2022/05/25 09:34:47;;;;;;;1.67;1.50;;;;;;;25.44;29.28;98964.27;1687550;84;21365;-74
2022/05/25 09:37:34;;;;;;;2.58;1.50;;;;;;;25.78;28.51;98954.05;1687606;84;20895;-73
2022/05/25 09:40:03;;;;;;;4.10;1.60;;;;;;;27.83;26.63;98940.05;1674829;85;21536;-72
2022/05/25 09:42:35;;;;;;;2.70;1.72;;;;;;;29.50;23.71;98937.97;1662912;84;38964;-74
2022/05/25 09:45:01;;;;;;;2.90;1.40;;;;;;;30.54;23.26;98923.48;1681903;85;21053;-73
2022/05/25 09:47:44;;;;;;;2.33;1.00;;;;;;;31.79;21.24;98919.70;1634009;85;21217;-72
2022/05/25 09:50:36;;;;;;;2.15;1.35;;;;;;;31.90;20.23;98926.50;1681835;85;20954;-75
2022/05/25 09:53:06;;;;;;;1.70;1.47;;;;;;;32.24;19.73;98933.98;1681870;85;21425;-72
2022/05/25 09:55:56;;;;;;;2.10;1.30;;;;;;;31.90;19.59;98919.63;1681881;85;20891;-75
2022/05/25 09:58:31;;;;;;;1.27;1.17;;;;;;;31.03;19.96;98921.09;1681958;85;20895;-76
2022/05/25 10:01:03;;;;;;;2.92;1.20;;;;;;;32.52;19.25;98912.39;1653938;85;21029;-74
2022/05/25 10:03:43;;;;;;;5.75;1.37;;;;;;;33.13;18.69;98906.41;1681207;85;21503;-76
2022/05/25 10:06:25;;;;;;;0.95;0.85;;;;;;;33.83;17.62;98907.61;1681815;85;21516;-74
2022/05/25 10:09:09;;;;;;;1.32;1.22;;;;;;;33.06;18.37;98912.98;1681829;85;20883;-76
2022/05/25 10:11:54;;;;;;;2.83;1.15;;;;;;;31.80;19.85;98918.58;1681798;85;20856;-74
2022/05/25 10:14:37;;;;;;;3.05;1.30;;;;;;;31.01;20.55;98914.55;1681870;85;21144;-74
2022/05/25 10:17:17;;;;;;;2.20;1.17;;;;;;;30.44;20.94;98910.03;1681833;85;20918;-73
2022/05/25 10:19:49;;;;;;;1.98;1.27;;;;;;;29.98;21.49;98906.77;1681372;85;20946;-73
2022/05/25 10:22:41;;;;;;;3.05;1.25;;;;;;;29.55;22.45;98900.31;1681661;85;20912;-75
2022/05/25 10:25:36;;;;;;;6.08;1.27;;;;;;;29.22;22.68;98902.39;1681784;85;21081;-75
2022/05/25 10:28:06;;;;;;;2.08;1.30;;;;;;;28.89;23.81;98910.41;1682099;85;21172;-73
2022/05/25 10:36:49;;;;;;;4.45;1.35;;;;;;;27.82;24.49;98910.53;1681803;85;20975;-75
2022/05/25 10:39:35;;;;;;;2.25;1.27;;;;;;;27.49;24.92;98895.98;1681887;85;20967;-74
2022/05/25 10:42:29;;;;;;;1.22;1.02;;;;;;;27.33;25.49;98915.56;1682560;85;21195;-75
2022/05/25 10:45:10;;;;;;;3.70;1.25;;;;;;;27.19;25.37;98887.36;1683127;85;21044;-73
2022/05/25 10:48:07;;;;;;;1.00;1.00;;;;;;;27.07;25.36;98878.20;1690096;84;20894;-73
2022/05/25 10:50:59;;;;;;;2.00;1.30;;;;;;;27.00;25.45;98890.58;1684442;84;20923;-73
2022/05/25 10:56:51;;;;;;;1.10;1.00;;;;;;;27.02;25.87;98878.27;1683274;85;21178;-73
2022/05/25 10:59:37;;;;;;;1.40;0.90;;;;;;;27.03;25.67;98879.91;1690910;84;21244;-74
2022/05/25 11:02:35;;;;;;;1.52;1.12;;;;;;;27.02;26.00;98871.45;1676791;85;21434;-73
2022/05/25 11:05:19;;;;;;;1.85;1.07;;;;;;;27.13;26.00;98873.50;1682960;85;20995;-73
2022/05/25 11:07:47;;;;;;;2.45;0.93;;;;;;;27.24;26.50;98861.36;1691547;83;21572;-74
2022/05/25 11:10:36;;;;;;;2.67;1.50;;;;;;;27.33;25.85;98869.14;1690981;84;21548;-74
2022/05/25 11:13:14;;;;;;;1.95;1.12;;;;;;;27.43;25.70;98862.19;1682925;85;20899;-73
2022/05/25 11:15:49;;;;;;;1.82;1.05;;;;;;;27.56;25.28;98858.73;1682937;85;20940;-74
2022/05/25 11:18:36;;;;;;;1.27;1.13;;;;;;;27.66;25.40;98859.97;1691124;84;20951;-73
2022/05/25 11:21:29;;;;;;;1.12;1.02;;;;;;;27.63;25.14;98851.55;1683009;85;21070;-74
2022/05/25 11:24:29;;;;;;;1.10;0.78;;;;;;;27.61;25.72;98852.41;1682931;85;21835;-73
2022/05/25 11:27:05;;;;;;;1.80;1.10;;;;;;;27.72;26.07;98851.12;1690671;84;21562;-72
2022/05/25 11:30:04;;;;;;;1.20;1.10;;;;;;;27.80;25.47;98847.17;1683043;85;20968;-72
2022/05/25 11:33:09;;;;;;;1.42;0.90;;;;;;;27.88;25.58;98840.21;1691544;83;20979;-75
2022/05/25 11:36:06;;;;;;;3.40;1.40;;;;;;;28.00;25.21;98844.09;1690704;84;20923;-73
2022/05/25 11:39:16;;;;;;;1.95;1.15;;;;;;;28.01;25.07;98836.20;1683062;85;21203;-73
2022/05/25 11:42:17;;;;;;;1.45;1.20;;;;;;;27.97;24.81;98826.14;1683304;83;20886;-73
2022/05/25 11:45:17;;;;;;;3.55;1.40;;;;;;;27.99;25.31;98826.09;1697588;84;21503;-73
2022/05/25 11:47:56;;;;;;;2.02;1.65;;;;;;;28.04;25.54;98823.30;1704478;82;21049;-72
2022/05/25 11:50:31;;;;;;;2.02;1.82;;;;;;;28.10;25.59;98818.02;1701454;83;21488;-73
2022/05/25 11:53:07;;;;;;;1.02;1.00;;;;;;;28.15;25.58;98819.29;1704066;84;21080;-73
2022/05/25 11:56:02;;;;;;;1.22;1.10;;;;;;;28.18;25.20;98811.59;1703903;83;21048;-74
2022/05/25 11:58:45;;;;;;;2.25;1.30;;;;;;;28.29;25.69;98815.77;1703891;84;20942;-72
2022/05/25 12:01:37;;;;;;;3.80;1.60;;;;;;;28.30;25.59;98815.45;1702756;83;21496;-73
2022/05/25 12:04:38;;;;;;;1.22;1.10;;;;;;;28.18;25.54;98804.75;1703886;84;20931;-72
2022/05/25 12:07:22;;;;;;;3.92;1.20;;;;;;;27.95;25.84;98805.91;1703900;84;21780;-74
2022/05/25 12:10:02;;;;;;;1.85;1.25;;;;;;;27.67;26.08;98804.75;1704006;84;21485;-74
2022/05/25 12:12:34;;;;;;;2.10;1.00;;;;;;;27.43;26.51;98808.39;1704541;82;21017;-74
2022/05/25 12:15:17;;;;;;;2.85;1.40;;;;;;;27.19;27.14;98808.19;1703848;84;21057;-74
2022/05/25 12:18:05;;;;;;;2.00;1.62;;;;;;;26.98;26.84;98804.92;1703780;84;21531;-74
2022/05/25 12:20:45;;;;;;;2.45;1.50;;;;;;;26.86;27.05;98798.50;1703881;83;21186;-74
2022/05/25 12:23:16;;;;;;;7.22;1.67;;;;;;;26.83;27.56;98792.80;1703603;84;20871;-74
2022/05/25 12:25:52;;;;;;;2.00;1.40;;;;;;;26.84;27.90;98808.91;1704528;82;20863;-74
2022/05/25 12:28:23;;;;;;;3.35;1.55;;;;;;;26.85;27.40;98794.14;1703901;84;20938;-73
2022/05/25 12:30:53;;;;;;;1.55;1.40;;;;;;;26.87;27.74;98784.31;1703708;84;21029;-73
2022/05/25 12:33:23;;;;;;;2.08;1.45;;;;;;;26.86;27.47;98796.32;1703598;84;21164;-74
2022/05/25 12:35:49;;;;;;;3.33;1.52;;;;;;;26.79;27.57;98783.59;1703717;84;20962;-74